• Join FlightAware (Why Join?)
  • Login
  • US Flag 
Trick or treat! (Boo!!) 
04:34AM EDT


 

Airport Tracker/Info


-or-


 

Live Flight TrackerFlight Track Log ✈ SWA2894 ✈ 21-Jun-2013 ✈ KLAX - KTUS

Flight Track Log - Related Links

Times and Time Zones

All times are in EDT time to prevent confusion due to time zone crossing. See the SWA2894 flight status page for this flight to view local times or setup timezone preferences in your user account.

Time Position Orientation Groundspeed Altitude Reporting Facility
EDT Latitude Longitude Course Direction KTS MPH feet Rate Location/Type
02:05PM 33.9167 -118.4667 90° East 197 227 2,500  Level Southern California TRACON
02:06PM 33.8703 -118.5097 218° Southwest 251 289 4,700 2,640 Climbing Los Angeles Center
02:07PM 33.7997 -118.5153 184° South 276 318 7,300 2,820 Climbing Los Angeles Center
02:08PM 33.7192 -118.5025 172° South 308 354 10,600 3,180 Climbing Los Angeles Center
02:09PM 33.6617 -118.3853 120° Southeast 351 404 14,000 3,120 Climbing Los Angeles Center
02:10PM 33.6392 -118.2678 103° East 372 428 17,200 2,700 Climbing Los Angeles Center
02:11PM 33.6333 -118.3162 90° East  Level FlightAware Approximate
02:11PM 33.6281 -118.1411 96° East 386 444 19,700  Level Los Angeles Center
02:12PM 33.6136 -118.0019 97° East 417 480 22,300 2,520 Climbing Los Angeles Center
02:13PM 33.5958 -117.8294 97° East 435 501 25,000 2,400 Climbing Los Angeles Center
02:14PM 33.5800 -117.6775 97° East 457 526 27,300 1,980 Climbing Los Angeles Center
02:15PM 33.5644 -117.5200 97° East 475 547 29,100 1,740 Climbing Los Angeles Center
02:16PM 33.5464 -117.3581 98° East 489 563 30,900 1,740 Climbing Los Angeles Center
02:17PM 33.5272 -117.1903 98° East 505 581 32,700 2,100 Climbing Los Angeles Center
02:18PM 33.5078 -116.9939 97° East 502 578 35,300 2,040 Climbing Los Angeles Center
02:19PM 33.4892 -116.8294 98° East 498 573 37,000 1,560 Climbing Los Angeles Center
02:20PM 33.4733 -116.6667 97° East 494 568 38,600 960 Climbing Los Angeles Center
02:21PM 33.4542 -116.5050 98° East 489 563 39,000 180 Climbing Los Angeles Center
02:23PM 33.4350 -116.3422 98° East 491 565 39,000  Level Los Angeles Center
02:24PM 33.4158 -116.1781 98° East 495 570 39,000  Level Los Angeles Center
02:25PM 33.3958 -116.0150 98° East 493 567 39,000  Level Los Angeles Center
02:26PM 33.3728 -115.8197 98° East 492 566 39,000  Level Los Angeles Center
02:27PM 33.3536 -115.6583 98° East 490 564 39,000  Level Los Angeles Center
02:28PM 33.3328 -115.4983 99° East 488 562 39,000  Level Los Angeles Center
02:29PM 33.3139 -115.3372 98° East 489 563 39,000  Level Los Angeles Center
02:30PM 33.2936 -115.1756 98° East 492 566 39,000  Level Los Angeles Center
02:31PM 33.2733 -115.0169 99° East 485 558 39,000  Level Los Angeles Center
02:32PM 33.2489 -114.8264 99° East 483 556 39,000  Level Los Angeles Center
02:33PM 33.2272 -114.6669 99° East 486 559 39,000  Level Los Angeles Center
02:34PM 33.2072 -114.5069 98° East 487 560 39,000  Level Los Angeles Center
02:35PM 33.1858 -114.3481 99° East 487 560 39,000  Level Los Angeles Center
02:36PM 33.1644 -114.1906 99° East 484 557 39,000  Level Los Angeles Center
02:37PM 33.1442 -114.0317 99° East 485 558 39,000  Level Los Angeles Center
02:38PM 33.1189 -113.8414 99° East 485 558 39,000 -300 Level Los Angeles Center
02:39PM 33.0975 -113.6831 99° East 485 558 38,400 -780 Descending Los Angeles Center
02:40PM 33.0761 -113.5242 99° East 486 559 37,500 -960 Descending Los Angeles Center
02:41PM 33.0542 -113.3628 99° East 492 566 36,500 -1,020 Descending Los Angeles Center
02:42PM 33.0292 -113.1778 99° East 498 573 35,400 -1,320 Descending Los Angeles Center
02:44PM 32.9990 -113.0388 96° East  Level FlightAware Approximate
02:46PM 32.9506 -112.6631 121° Southeast 484 557 30,900  Level Albuquerque Center
02:47PM 32.8989 -112.5233 114° Southeast 461 531 28,800 -2,220 Descending Albuquerque Center
02:48PM 32.8358 -112.3628 115° Southeast 451 519 26,400 -1,800 Descending Albuquerque Center
02:49PM 32.7878 -112.2350 114° Southeast 439 505 25,100 -1,440 Descending Albuquerque Center
02:50PM 32.7422 -112.1175 115° Southeast 411 473 23,500 -1,680 Descending Albuquerque Center
02:51PM 32.7341 -112.1182 121° Southeast  Level FlightAware Approximate
02:51PM 32.6975 -112.0025 115° Southeast 394 453 21,700  Level Albuquerque Center
02:52PM 32.6519 -111.8858 115° Southeast 392 451 19,800 -1,860 Descending Albuquerque Center
02:53PM 32.6086 -111.7747 115° Southeast 381 438 18,000 -1,980 Descending Albuquerque Center
02:54PM 32.5589 -111.6553 116° Southeast 377 434 16,100 -2,040 Descending Albuquerque Center
02:55PM 32.4983 -111.5500 124° Southeast 365 420 14,000 -1,500 Descending Albuquerque Center
02:56PM 32.4461 -111.4553 123° Southeast 345 397 13,000 -1,140 Descending Albuquerque Center
02:57PM 32.3967 -111.3650 123° Southeast 331 381 11,800 -1,140 Descending Albuquerque Center
02:58PM 32.3506 -111.2797 123° Southeast 305 351 10,600 -1,320 Descending Albuquerque Center
02:59PM 32.2986 -111.1894 124° Southeast 296 341 9,000 -1,260 Descending Albuquerque Center
03:00PM 32.2617 -111.1097 119° Southeast 266 306 8,000 -1,200 Descending Albuquerque Center
03:01PM 32.2297 -111.0669 131° Southeast 212 244 6,700 -1,560 Descending Albuquerque Center
03:02PM 32.1919 -111.0267 138° Southeast 190 219 5,200 -1,500 Descending Albuquerque Center
03:03PM 32.1561 -110.9861 136° Southeast 175 201 3,700 -1,260 Descending Albuquerque Center
03:04PM 32.1258 -110.9514 136° Southeast 156 180 2,700 -1,020 Descending Albuquerque Center
03:06PM 32.1161 -110.9410 128° Southeast  Level Estimated